Time;durP1;ratioP1;P1;durP2;ratioP2;P2;SDS_P1;SDS_P2;PMS_P1;PMS_P2;Temp;Humidity;BMP_temperature;BMP_pressure;BME280_temperature;BME280_humidity;BME280_pressure;Samples;Min_cycle;Max_cycle;Signal;HPM_P1;HPM_P2
2022/12/14 00:00:44;;;;;;;9.10;5.22;;;;;;;-2.18;71.44;98629.91;5034297;28;20369;-60
2022/12/14 00:03:10;;;;;;;8.20;5.55;;;;;;;-2.13;70.69;98624.44;5034572;28;20025;-61
2022/12/14 00:05:35;;;;;;;11.05;6.25;;;;;;;-2.16;70.30;98611.47;5034066;28;20083;-61
2022/12/14 00:08:01;;;;;;;9.05;5.60;;;;;;;-2.35;69.70;98580.06;5034287;28;20493;-61
2022/12/14 00:10:26;;;;;;;8.70;5.22;;;;;;;-2.26;70.24;98626.78;5034581;28;20033;-62
2022/12/14 00:12:52;;;;;;;11.05;6.30;;;;;;;-2.24;69.22;98611.84;5033653;28;20026;-62
2022/12/14 00:15:17;;;;;;;11.90;6.43;;;;;;;-2.41;69.44;98601.28;5033721;28;20048;-59
2022/12/14 00:17:43;;;;;;;12.88;7.25;;;;;;;-2.39;69.36;98616.03;5034195;28;20075;-59
2022/12/14 00:20:08;;;;;;;11.65;6.63;;;;;;;-2.44;69.03;98602.31;5034843;28;20365;-62
2022/12/14 00:22:34;;;;;;;9.82;5.68;;;;;;;-2.50;68.84;98620.94;5034548;28;20464;-60
2022/12/14 00:25:01;;;;;;;11.20;6.47;;;;;;;-2.53;68.49;98602.72;5034667;28;20040;-59
2022/12/14 00:27:28;;;;;;;10.30;6.32;;;;;;;-2.43;67.45;98611.88;5033510;28;20030;-62
2022/12/14 00:29:53;;;;;;;11.52;5.93;;;;;;;-2.27;65.93;98608.53;5033502;28;20087;-59
2022/12/14 00:32:19;;;;;;;11.90;4.93;;;;;;;-2.63;67.22;98589.22;5034075;28;20041;-63
2022/12/14 00:34:44;;;;;;;10.73;5.60;;;;;;;-2.85;67.09;98577.09;5033868;28;20387;-61
2022/12/14 00:37:10;;;;;;;13.32;6.78;;;;;;;-3.07;68.43;98578.06;5033649;28;20049;-62
2022/12/14 00:39:35;;;;;;;13.57;6.97;;;;;;;-3.07;68.30;98585.94;5033493;28;20101;-62
2022/12/14 00:42:01;;;;;;;13.63;6.80;;;;;;;-3.07;68.63;98585.06;5034001;28;20128;-61
2022/12/14 00:44:26;;;;;;;11.45;5.45;;;;;;;-3.18;68.72;98568.09;5033441;28;20364;-61
2022/12/14 00:46:51;;;;;;;17.00;7.68;;;;;;;-3.13;68.72;98599.31;5033605;28;20810;-61
2022/12/14 00:49:18;;;;;;;11.95;4.78;;;;;;;-3.04;68.72;98585.78;5033731;28;20053;-62
2022/12/14 00:51:43;;;;;;;13.70;6.20;;;;;;;-3.06;68.79;98605.09;5033458;28;20037;-62
2022/12/14 00:54:08;;;;;;;11.48;6.38;;;;;;;-3.17;69.43;98592.47;5033171;28;20423;-61
2022/12/14 00:56:34;;;;;;;13.55;6.90;;;;;;;-3.59;69.99;98543.75;5033242;28;20029;-60
2022/12/14 00:58:59;;;;;;;15.55;7.15;;;;;;;-3.35;70.45;98578.44;5034065;28;20403;-62
2022/12/14 01:01:25;;;;;;;14.82;7.32;;;;;;;-3.20;69.80;98580.41;5033730;28;20061;-61
2022/12/14 01:04:15;;;;;;;13.60;7.03;;;;;;;-3.20;70.02;98566.44;5032644;28;20057;-58
2022/12/14 01:06:35;;;;;;;11.00;6.38;;;;;;;-3.03;68.79;98561.31;5032932;28;20159;-62
2022/12/14 01:09:01;;;;;;;14.93;6.78;;;;;;;-3.12;68.53;98547.78;5033784;28;20065;-62
2022/12/14 01:11:26;;;;;;;11.68;6.35;;;;;;;-3.20;68.89;98546.38;5033430;28;20033;-62
2022/12/14 01:13:55;;;;;;;15.93;7.28;;;;;;;-3.30;69.67;98523.28;5032484;28;20037;-62
2022/12/14 01:16:20;;;;;;;11.57;6.50;;;;;;;-3.36;70.49;98532.25;5032707;28;20344;-60
2022/12/14 01:18:46;;;;;;;11.07;5.90;;;;;;;-3.29;70.42;98519.75;5033352;28;20037;-61
2022/12/14 01:21:14;;;;;;;10.40;6.18;;;;;;;-3.08;70.07;98528.38;5033235;28;20108;-61
2022/12/14 01:23:40;;;;;;;12.50;6.97;;;;;;;-3.14;70.21;98520.81;5032838;28;20057;-61
2022/12/14 01:26:05;;;;;;;12.88;7.03;;;;;;;-3.01;69.81;98534.19;5033037;28;20064;-60
2022/12/14 01:28:33;;;;;;;12.52;6.68;;;;;;;-3.06;69.41;98511.69;5032908;28;20112;-63
2022/12/14 01:31:03;;;;;;;13.80;7.15;;;;;;;-3.08;69.91;98515.28;5032987;28;20227;-62
2022/12/14 01:33:29;;;;;;;14.50;7.60;;;;;;;-3.00;69.55;98514.94;5032838;28;20056;-62
2022/12/14 01:35:54;;;;;;;12.68;6.63;;;;;;;-2.94;69.25;98520.75;5032524;28;20126;-62
2022/12/14 01:38:20;;;;;;;9.23;5.30;;;;;;;-2.77;67.74;98509.47;5032573;28;20036;-61
2022/12/14 01:40:45;;;;;;;9.35;5.18;;;;;;;-2.94;68.08;98518.13;5032399;28;20116;-63
2022/12/14 01:43:13;;;;;;;10.35;5.55;;;;;;;-2.97;68.00;98515.66;5031115;28;20363;-61
2022/12/14 01:45:41;;;;;;;10.93;5.72;;;;;;;-3.08;67.81;98544.97;5032096;28;20138;-62
2022/12/14 01:48:11;;;;;;;8.45;5.35;;;;;;;-3.33;68.03;98524.25;5031281;28;20079;-61
2022/12/14 01:50:42;;;;;;;11.90;5.60;;;;;;;-3.24;68.35;98517.75;5032125;28;20041;-62
2022/12/14 01:53:12;;;;;;;11.75;6.35;;;;;;;-3.23;68.13;98525.56;5032218;28;20064;-62
2022/12/14 01:55:42;;;;;;;12.63;6.13;;;;;;;-3.36;68.13;98506.94;5032228;28;20029;-62
2022/12/14 01:58:13;;;;;;;14.02;6.45;;;;;;;-3.38;68.85;98510.53;5032102;28;20064;-62
2022/12/14 02:00:39;;;;;;;10.38;6.25;;;;;;;-3.49;68.83;98501.41;5032158;28;20037;-61
2022/12/14 02:03:13;;;;;;;12.85;7.03;;;;;;;-3.50;69.28;98498.84;5031488;28;20111;-62
2022/12/14 02:05:43;;;;;;;8.82;5.13;;;;;;;-3.46;69.39;98497.78;5032473;28;20033;-61
2022/12/14 02:08:10;;;;;;;13.00;7.15;;;;;;;-3.49;69.67;98475.25;5032236;28;20040;-61
2022/12/14 02:10:36;;;;;;;13.10;7.00;;;;;;;-3.38;69.35;98485.19;5032370;28;20424;-62
2022/12/14 02:13:37;;;;;;;12.77;6.95;;;;;;;-3.41;70.50;98474.88;5031958;28;20104;-62
2022/12/14 02:16:02;;;;;;;11.65;6.60;;;;;;;-3.19;69.03;98484.38;5030871;28;20072;-62
2022/12/14 02:18:29;;;;;;;14.32;7.28;;;;;;;-3.29;69.48;98489.16;5032343;28;20697;-61
2022/12/14 02:21:30;;;;;;;12.48;7.60;;;;;;;-3.33;70.03;98488.47;5031894;28;20037;-63
2022/12/14 02:24:20;;;;;;;14.52;7.13;;;;;;;-3.25;69.47;98479.41;5019337;28;20133;-63
2022/12/14 02:27:11;;;;;;;13.55;6.85;;;;;;;-3.10;69.38;98470.88;5012608;28;20038;-62
2022/12/14 02:29:50;;;;;;;15.73;7.72;;;;;;;-3.20;68.46;98472.19;5012674;28;20041;-63
2022/12/14 02:32:43;;;;;;;11.38;6.60;;;;;;;-3.29;69.08;98467.41;5012215;28;20042;-63
2022/12/14 02:35:45;;;;;;;12.73;8.10;;;;;;;-3.33;69.43;98471.91;5013094;28;20034;-62
2022/12/14 02:38:36;;;;;;;13.75;7.35;;;;;;;-3.34;69.61;98468.47;5025495;28;20034;-60
2022/12/14 02:41:11;;;;;;;14.25;7.63;;;;;;;-3.27;69.52;98450.69;5032025;28;20029;-62
2022/12/14 02:43:42;;;;;;;;;;;;;;;-3.11;69.78;98463.94;5032791;28;20041;-62
2022/12/14 02:46:14;;;;;;;14.70;7.28;;;;;;;-3.01;68.88;98466.97;5031341;28;20347;-62
2022/12/14 02:48:47;;;;;;;12.98;8.00;;;;;;;-3.18;69.04;98473.84;5032198;28;20120;-62
2022/12/14 02:51:34;;;;;;;13.55;7.28;;;;;;;-3.03;69.37;98479.25;5033954;28;20033;-63
2022/12/14 02:54:05;;;;;;;10.73;5.75;;;;;;;-2.98;68.38;98492.16;5036006;28;21025;-63
2022/12/14 02:56:44;;;;;;;13.88;7.78;;;;;;;-3.21;68.70;98471.38;5035864;28;20034;-62
2022/12/14 02:59:10;;;;;;;14.80;8.82;;;;;;;-3.36;69.17;98451.97;5035486;28;20056;-62
2022/12/14 03:01:37;;;;;;;17.42;7.75;;;;;;;-3.29;69.58;98446.47;5035651;28;20064;-62
2022/12/14 03:04:02;;;;;;;13.30;7.55;;;;;;;-3.37;69.22;98424.13;5035791;28;20452;-63
2022/12/14 03:06:28;;;;;;;15.02;7.90;;;;;;;-3.28;68.75;98442.91;5035962;28;20056;-62
2022/12/14 03:09:02;;;;;;;13.75;7.78;;;;;;;-3.47;69.57;98431.53;5034408;28;20447;-61
2022/12/14 03:11:36;;;;;;;13.88;7.72;;;;;;;-3.41;68.74;98443.47;5034891;28;20040;-62
2022/12/14 03:14:11;;;;;;;13.13;7.72;;;;;;;-3.55;69.28;98427.56;5035653;28;20068;-60
2022/12/14 03:16:43;;;;;;;12.77;6.55;;;;;;;-3.42;67.96;98415.59;5036303;28;20036;-61
2022/12/14 03:19:27;;;;;;;12.27;7.07;;;;;;;-3.52;69.01;98432.66;5035762;28;20095;-61
2022/12/14 03:22:00;;;;;;;12.07;5.78;;;;;;;-3.57;67.68;98398.84;5035227;28;20060;-62
2022/12/14 03:24:31;;;;;;;9.80;5.93;;;;;;;-3.49;67.38;98425.53;5035158;28;20073;-63
2022/12/14 03:27:03;;;;;;;13.43;6.85;;;;;;;-3.76;68.16;98417.97;5035399;28;20243;-62
2022/12/14 03:29:34;;;;;;;14.52;7.35;;;;;;;-3.63;67.61;98425.28;5034965;28;20065;-62
2022/12/14 03:32:07;;;;;;;13.75;7.85;;;;;;;-3.69;68.13;98413.31;5034816;28;20037;-62
2022/12/14 03:34:41;;;;;;;16.60;7.45;;;;;;;-3.76;68.16;98417.16;5034970;28;20343;-61
2022/12/14 03:37:24;;;;;;;13.27;7.20;;;;;;;-4.01;68.75;98371.16;5034891;28;20034;-62
2022/12/14 03:39:49;;;;;;;12.38;6.50;;;;;;;-3.84;68.92;98399.16;5034729;28;20040;-59
2022/12/14 03:42:28;;;;;;;15.60;7.25;;;;;;;-3.73;68.54;98406.53;5033509;28;20029;-61
2022/12/14 03:45:03;;;;;;;16.08;7.38;;;;;;;-3.67;68.66;98397.56;5034473;28;20104;-61
2022/12/14 03:48:04;;;;;;;10.93;6.72;;;;;;;-3.62;68.58;98393.84;5034520;28;20025;-59
2022/12/14 03:50:58;;;;;;;12.00;6.25;;;;;;;-3.75;68.48;98356.06;5033128;28;20045;-56
2022/12/14 03:53:31;;;;;;;12.68;6.90;;;;;;;-3.58;68.55;98385.84;5034679;28;20103;-61
2022/12/14 03:56:20;;;;;;;14.25;7.35;;;;;;;-3.51;67.86;98393.31;5034296;28;20048;-62
2022/12/14 03:58:50;;;;;;;13.43;6.90;;;;;;;-3.53;66.89;98404.78;5034173;28;20036;-61
2022/12/14 04:01:26;;;;;;;14.95;7.25;;;;;;;-3.52;66.59;98415.16;5034531;28;20820;-62
2022/12/14 04:03:58;;;;;;;13.90;7.43;;;;;;;-3.67;67.51;98402.81;5034111;28;20110;-61
2022/12/14 04:06:45;;;;;;;13.23;6.97;;;;;;;-3.57;66.43;98411.09;5034637;28;20030;-62
2022/12/14 04:09:25;;;;;;;13.43;6.90;;;;;;;-3.64;66.80;98421.81;5033805;28;20041;-66
2022/12/14 04:18:55;;;;;;;15.15;7.93;;;;;;;-3.71;66.00;98391.63;5029753;28;20033;-62
2022/12/14 04:20:45;;;;;;;12.90;6.90;;;;;;;-3.69;66.39;98394.19;5033812;28;20379;-63
2022/12/14 04:26:03;;;;;;;16.27;7.03;;;;;;;-3.73;66.11;98401.31;5034345;28;20029;-61
2022/12/14 04:26:10;;;;;;;15.85;7.47;;;;;;;-3.97;66.09;98351.81;5032998;28;20041;-63
2022/12/14 04:31:50;;;;;;;15.82;7.85;;;;;;;-3.70;66.15;98380.25;5021261;28;20033;-64
2022/12/14 04:34:20;;;;;;;12.27;7.05;;;;;;;-3.79;66.57;98378.06;5014525;28;20213;-65
2022/12/14 04:36:52;;;;;;;12.57;7.97;;;;;;;-3.83;66.67;98386.97;5014087;28;20437;-65
2022/12/14 04:39:25;;;;;;;16.77;8.65;;;;;;;-4.07;67.26;98363.59;5014204;28;20048;-70
2022/12/14 04:41:55;;;;;;;13.85;7.68;;;;;;;-3.96;67.27;98387.50;5013532;28;20112;-63
2022/12/14 04:44:29;;;;;;;14.50;7.30;;;;;;;-3.85;66.84;98391.41;5029468;28;20051;-66
2022/12/14 04:46:58;;;;;;;14.90;7.70;;;;;;;-3.89;67.06;98380.22;5033967;28;20091;-65
2022/12/14 04:49:34;;;;;;;14.73;7.15;;;;;;;-3.68;66.99;98390.66;5033544;28;20140;-64
2022/12/14 04:52:06;;;;;;;14.43;7.80;;;;;;;-3.77;66.81;98390.13;5033961;28;20042;-63
2022/12/14 04:54:43;;;;;;;15.32;8.13;;;;;;;-3.73;66.63;98384.78;5033215;28;20439;-66
2022/12/14 04:57:35;;;;;;;16.08;8.65;;;;;;;-3.73;66.72;98405.72;5033316;28;20037;-63
2022/12/14 05:00:01;;;;;;;13.15;6.88;;;;;;;-3.71;66.60;98393.41;5033343;28;20064;-64
2022/12/14 05:02:50;;;;;;;13.70;8.55;;;;;;;-3.69;66.65;98394.19;5033154;28;20419;-63
2022/12/14 05:05:24;;;;;;;13.35;7.35;;;;;;;-3.63;66.51;98386.06;5032408;28;20427;-64
2022/12/14 05:08:25;;;;;;;17.33;8.13;;;;;;;-3.57;66.30;98390.16;5032221;28;20037;-64
2022/12/14 05:11:00;;;;;;;15.45;7.35;;;;;;;-3.59;67.07;98382.38;5020985;28;20037;-64
2022/12/14 05:13:39;;;;;;;19.20;9.30;;;;;;;-3.61;66.34;98392.06;5032190;28;20045;-64
2022/12/14 05:16:06;;;;;;;18.20;8.27;;;;;;;-3.72;67.08;98387.31;5032293;28;20545;-65
2022/12/14 05:18:34;;;;;;;14.55;8.18;;;;;;;-3.66;66.79;98383.56;5032032;28;20034;-65
2022/12/14 05:20:59;;;;;;;15.60;8.73;;;;;;;-3.61;66.48;98382.44;5033393;28;20126;-64
2022/12/14 05:23:25;;;;;;;14.85;7.97;;;;;;;-3.82;66.63;98352.03;5033186;28;20056;-64
2022/12/14 05:25:50;;;;;;;18.48;8.98;;;;;;;-3.65;66.30;98383.50;5031863;28;20104;-63
2022/12/14 05:28:15;;;;;;;17.13;8.45;;;;;;;-3.54;66.34;98382.16;5031490;28;20122;-63
2022/12/14 05:30:41;;;;;;;18.48;9.07;;;;;;;-3.76;65.96;98334.28;5032273;28;20463;-62
2022/12/14 05:33:15;;;;;;;16.67;8.23;;;;;;;-3.55;66.90;98378.69;5031749;28;20033;-65
2022/12/14 05:35:40;;;;;;;18.63;9.25;;;;;;;-3.63;67.47;98372.97;5031004;28;20448;-63
2022/12/14 05:38:06;;;;;;;15.95;7.65;;;;;;;-3.49;66.95;98383.66;5032506;28;20032;-63
2022/12/14 05:40:31;;;;;;;19.13;9.45;;;;;;;-3.55;66.39;98356.91;5028698;28;20044;-66
2022/12/14 05:43:07;;;;;;;19.50;9.32;;;;;;;-3.47;67.01;98376.59;5032084;28;20083;-64
2022/12/14 05:45:33;;;;;;;17.88;9.77;;;;;;;-3.52;66.26;98377.72;5031856;28;20037;-64
2022/12/14 05:47:59;;;;;;;21.10;9.07;;;;;;;-3.57;66.65;98371.84;5031933;28;20046;-64
2022/12/14 05:50:24;;;;;;;20.40;9.13;;;;;;;-3.60;67.16;98375.44;5031499;28;20091;-64
2022/12/14 05:52:51;;;;;;;15.30;8.73;;;;;;;-3.59;66.73;98381.53;5032175;28;20503;-65
2022/12/14 05:55:17;;;;;;;15.13;8.70;;;;;;;-3.52;66.98;98378.53;5032302;28;20029;-64
2022/12/14 05:57:42;;;;;;;16.02;9.30;;;;;;;-3.50;66.90;98366.22;5031720;28;20037;-64
2022/12/14 06:00:08;;;;;;;16.90;9.25;;;;;;;-3.36;66.94;98381.31;5030806;28;20043;-63
2022/12/14 06:02:34;;;;;;;16.38;9.15;;;;;;;-3.45;66.78;98358.19;5015129;28;20034;-64
2022/12/14 06:04:59;;;;;;;17.35;9.25;;;;;;;-3.30;66.52;98372.31;5031063;28;20108;-65
2022/12/14 06:07:25;;;;;;;17.25;9.55;;;;;;;-3.36;66.69;98373.47;5031560;28;20062;-63
2022/12/14 06:09:50;;;;;;;17.55;8.85;;;;;;;-3.25;66.41;98383.44;5031920;28;20037;-64
2022/12/14 06:12:16;;;;;;;18.70;10.32;;;;;;;-3.31;66.39;98381.06;5031683;28;20033;-64
2022/12/14 06:14:42;;;;;;;18.42;9.98;;;;;;;-3.22;65.97;98378.03;5026139;28;20083;-65
2022/12/14 06:17:07;;;;;;;17.42;9.70;;;;;;;-3.27;66.71;98381.78;5032059;28;20041;-66
2022/12/14 06:19:33;;;;;;;17.95;9.77;;;;;;;-3.36;67.45;98376.09;5031921;28;20464;-65
2022/12/14 06:21:58;;;;;;;20.00;10.68;;;;;;;-3.21;66.91;98379.75;5031471;28;20345;-65
2022/12/14 06:24:24;;;;;;;17.15;9.20;;;;;;;-3.09;66.26;98385.28;5030990;28;20112;-65
2022/12/14 06:26:49;;;;;;;17.92;8.45;;;;;;;-3.00;66.12;98374.41;5035764;28;20053;-75
2022/12/14 06:29:19;;;;;;;21.42;10.65;;;;;;;-2.99;66.16;98391.81;5034510;28;20042;-62
2022/12/14 06:31:45;;;;;;;20.63;10.43;;;;;;;-3.11;66.30;98382.78;5035419;28;20452;-62
2022/12/14 06:34:10;;;;;;;19.60;10.57;;;;;;;-3.06;66.35;98391.25;5034808;28;20060;-63
2022/12/14 06:36:38;;;;;;;18.88;10.90;;;;;;;-2.94;66.48;98395.03;5035592;28;20040;-64
2022/12/14 06:39:06;;;;;;;19.33;9.73;;;;;;;-2.82;66.03;98392.72;5034408;28;20033;-64
2022/12/14 06:41:32;;;;;;;18.33;10.23;;;;;;;-2.80;66.73;98402.22;5035412;28;20040;-62
2022/12/14 06:44:05;;;;;;;17.65;10.10;;;;;;;-2.74;66.14;98407.16;5034408;28;20037;-62
2022/12/14 06:46:31;;;;;;;18.95;9.93;;;;;;;-2.92;65.36;98367.00;5035845;28;20025;-62
2022/12/14 06:48:57;;;;;;;19.80;10.63;;;;;;;-2.78;65.84;98410.00;5034956;28;20056;-61
2022/12/14 06:51:24;;;;;;;18.55;10.63;;;;;;;-2.90;66.44;98398.34;5035165;28;20060;-61
2022/12/14 06:53:51;;;;;;;16.60;10.27;;;;;;;-2.83;66.27;98412.84;5036034;28;20052;-62
2022/12/14 06:56:18;;;;;;;22.15;10.27;;;;;;;-2.73;66.27;98402.78;5034145;28;20423;-61
2022/12/14 06:58:44;;;;;;;19.90;10.48;;;;;;;-2.74;66.55;98401.91;5031576;28;20037;-59
2022/12/14 07:01:13;;;;;;;21.98;11.15;;;;;;;-2.75;66.61;98394.97;5032287;28;20460;-59
2022/12/14 07:03:39;;;;;;;17.00;10.25;;;;;;;-2.78;66.45;98410.00;5031839;28;20456;-58
2022/12/14 07:06:05;;;;;;;22.27;11.65;;;;;;;-2.76;66.17;98421.28;5039233;28;20405;-59
2022/12/14 07:08:33;;;;;;;21.63;11.90;;;;;;;-2.74;66.45;98417.63;5054689;28;20040;-57
2022/12/14 07:11:03;;;;;;;21.73;11.50;;;;;;;-2.65;66.93;98415.50;5041134;28;20033;-59
2022/12/14 07:13:29;;;;;;;19.75;10.48;;;;;;;-2.61;65.69;98422.28;5030308;28;20035;-60
2022/12/14 07:15:55;;;;;;;18.63;10.32;;;;;;;-2.79;65.67;98377.72;5016125;28;20416;-62
2022/12/14 07:18:22;;;;;;;19.55;9.82;;;;;;;-2.73;65.49;98397.53;5014792;28;20042;-61
2022/12/14 07:21:09;;;;;;;17.02;10.13;;;;;;;-2.41;64.82;98442.25;5028221;28;20039;-57
2022/12/14 07:23:36;;;;;;;18.30;10.20;;;;;;;-2.50;65.28;98440.94;5034543;28;20034;-60
2022/12/14 07:26:04;;;;;;;19.00;10.02;;;;;;;-2.58;65.23;98439.63;5034483;28;20025;-59
2022/12/14 07:28:30;;;;;;;22.20;10.82;;;;;;;-2.65;65.23;98442.53;5033736;28;20540;-55
2022/12/14 07:30:57;;;;;;;18.88;11.07;;;;;;;-2.53;65.10;98446.34;5033338;28;20128;-66
2022/12/14 07:33:23;;;;;;;20.63;10.45;;;;;;;-2.48;65.80;98446.94;5033715;28;20064;-58
2022/12/14 07:35:49;;;;;;;19.67;10.63;;;;;;;-2.51;65.63;98427.94;5031631;28;20448;-57
2022/12/14 07:38:15;;;;;;;18.65;10.75;;;;;;;-2.38;65.30;98457.00;5033366;28;20128;-55
2022/12/14 07:40:41;;;;;;;18.95;9.80;;;;;;;-2.38;65.54;98449.13;5033881;28;20128;-55
2022/12/14 07:43:07;;;;;;;18.90;10.35;;;;;;;-2.33;64.36;98447.13;5034119;28;20057;-53
2022/12/14 07:45:33;;;;;;;22.15;11.40;;;;;;;-2.43;65.11;98465.09;5030623;28;20130;-57
2022/12/14 07:47:58;;;;;;;19.90;10.90;;;;;;;-2.41;65.22;98465.00;5033435;28;20468;-62
2022/12/14 07:50:24;;;;;;;18.55;10.85;;;;;;;-2.42;65.56;98458.06;5032392;28;20409;-55
2022/12/14 07:52:49;;;;;;;22.58;11.40;;;;;;;-2.28;65.30;98467.88;5033946;28;20439;-57
2022/12/14 07:55:15;;;;;;;22.17;12.00;;;;;;;-2.22;65.08;98475.44;5034029;28;20033;-60
2022/12/14 07:57:40;;;;;;;21.85;11.65;;;;;;;-2.21;65.45;98464.00;5032693;28;20033;-57
2022/12/14 08:00:06;;;;;;;23.90;11.40;;;;;;;-2.12;65.78;98478.44;5033125;28;20056;-62
2022/12/14 08:02:32;;;;;;;23.05;11.77;;;;;;;-2.05;65.66;98482.44;5033467;28;20116;-57
2022/12/14 08:04:57;;;;;;;21.20;12.27;;;;;;;-2.21;65.38;98443.88;5033772;28;20418;-55
2022/12/14 08:07:23;;;;;;;27.10;14.05;;;;;;;-2.06;65.23;98468.47;5033998;28;20435;-57
2022/12/14 08:09:48;;;;;;;26.25;13.10;;;;;;;-2.00;65.64;98480.44;5033918;28;20040;-59
2022/12/14 08:12:13;;;;;;;24.85;14.00;;;;;;;-2.05;65.46;98471.94;5033753;28;20035;-52
2022/12/14 08:14:39;;;;;;;28.00;14.63;;;;;;;-2.03;66.01;98486.69;5033653;28;20092;-54
2022/12/14 08:17:04;;;;;;;29.48;15.50;;;;;;;-1.98;66.13;98483.00;5033677;28;20114;-56
2022/12/14 08:19:30;;;;;;;26.50;14.23;;;;;;;-1.97;65.60;98482.06;5033519;28;20029;-55
2022/12/14 08:21:55;;;;;;;23.67;13.30;;;;;;;-1.99;65.31;98481.28;5032975;28;20060;-55
2022/12/14 08:24:20;;;;;;;24.30;13.48;;;;;;;-1.93;65.73;98481.84;5034126;28;20033;-54
2022/12/14 08:26:46;;;;;;;28.70;14.13;;;;;;;-1.85;65.51;98497.16;5031234;28;20039;-54
2022/12/14 08:29:13;;;;;;;26.92;14.20;;;;;;;-1.82;65.61;98497.00;5028453;28;20118;-56
2022/12/14 08:31:39;;;;;;;26.67;13.63;;;;;;;-1.79;65.97;98501.25;5013651;28;20427;-58
2022/12/14 08:34:05;;;;;;;27.50;14.50;;;;;;;-1.76;65.83;98503.72;5013718;28;20172;-59
2022/12/14 08:36:33;;;;;;;28.33;14.63;;;;;;;-1.70;65.65;98505.19;5022373;28;20128;-61
2022/12/14 08:39:00;;;;;;;25.80;13.70;;;;;;;-1.66;65.98;98509.34;5033275;28;20030;-59
2022/12/14 08:41:27;;;;;;;25.02;13.93;;;;;;;-1.65;66.01;98504.03;5033084;28;20033;-56
2022/12/14 08:43:57;;;;;;;29.63;14.43;;;;;;;-1.57;65.90;98503.59;5032357;28;20457;-57
2022/12/14 08:46:24;;;;;;;27.48;13.77;;;;;;;-1.55;65.64;98506.16;5013619;28;20052;-57
2022/12/14 08:48:51;;;;;;;27.40;15.23;;;;;;;-1.77;66.03;98481.91;5012984;28;20133;-61
2022/12/14 08:51:17;;;;;;;24.98;13.90;;;;;;;-1.52;65.82;98519.13;5017798;28;20483;-60
2022/12/14 08:53:46;;;;;;;24.00;13.60;;;;;;;-1.47;65.36;98527.59;5033135;28;20046;-56
2022/12/14 08:56:14;;;;;;;23.40;12.02;;;;;;;-1.38;65.31;98519.25;5032242;28;20083;-57
2022/12/14 08:58:40;;;;;;;27.17;11.98;;;;;;;-1.36;64.62;98533.16;5033114;28;20045;-52
2022/12/14 09:01:11;;;;;;;22.10;12.55;;;;;;;-1.34;65.33;98536.56;5031559;28;20120;-56
2022/12/14 09:03:36;;;;;;;23.95;12.10;;;;;;;-1.34;64.92;98543.56;5032351;28;20121;-57
2022/12/14 09:06:08;;;;;;;23.08;12.68;;;;;;;-1.27;65.12;98541.47;5032184;28;20112;-56
2022/12/14 09:08:34;;;;;;;19.08;11.52;;;;;;;-1.26;64.43;98551.03;5032439;28;20095;-56
2022/12/14 09:11:01;;;;;;;22.13;11.43;;;;;;;-1.27;64.84;98555.47;5032044;28;20034;-58
2022/12/14 09:13:27;;;;;;;23.48;12.50;;;;;;;-1.24;65.09;98572.81;5032119;28;20465;-58
2022/12/14 09:15:56;;;;;;;22.60;12.27;;;;;;;-1.17;65.13;98574.22;5030688;28;20064;-54
2022/12/14 09:18:22;;;;;;;20.52;11.82;;;;;;;-1.16;65.31;98582.00;5032517;28;20029;-57
2022/12/14 09:20:47;;;;;;;22.05;11.93;;;;;;;-1.11;65.22;98568.63;5032853;28;20030;-57
2022/12/14 09:23:12;;;;;;;22.35;12.70;;;;;;;-1.01;64.57;98575.06;5031458;28;20476;-58
2022/12/14 09:25:38;;;;;;;25.30;12.50;;;;;;;-0.93;64.11;98576.47;5030454;28;20045;-57
2022/12/14 09:28:03;;;;;;;24.75;13.25;;;;;;;-0.86;64.23;98588.34;5032248;28;20087;-57
2022/12/14 09:30:29;;;;;;;23.23;12.88;;;;;;;-0.90;63.50;98576.31;5022225;28;20061;-57
2022/12/14 09:32:54;;;;;;;20.88;11.77;;;;;;;-0.89;64.06;98583.25;5012525;28;20096;-57
2022/12/14 09:35:21;;;;;;;21.38;11.82;;;;;;;-0.87;63.20;98599.78;5012343;28;20030;-57
2022/12/14 09:37:46;;;;;;;24.00;12.40;;;;;;;-0.87;63.41;98605.03;5012664;28;20026;-57
2022/12/14 09:40:12;;;;;;;22.23;12.43;;;;;;;-0.99;63.99;98598.66;5019576;28;20039;-54
2022/12/14 09:42:56;;;;;;;22.33;11.68;;;;;;;-0.83;63.75;98611.81;5030729;28;20057;-56
2022/12/14 09:45:28;;;;;;;19.02;10.77;;;;;;;-0.76;63.01;98617.59;5030175;28;20033;-65
2022/12/14 09:48:15;;;;;;;21.13;11.27;;;;;;;-0.75;62.47;98621.94;5031806;28;20084;-58
2022/12/14 09:50:41;;;;;;;21.13;11.35;;;;;;;-0.97;63.13;98620.44;5018104;28;20045;-61
2022/12/14 09:53:12;;;;;;;17.92;11.02;;;;;;;-0.91;62.51;98635.88;5030659;28;20066;-54
2022/12/14 09:55:43;;;;;;;20.85;10.80;;;;;;;-1.00;62.77;98644.25;5032064;28;20033;-53
2022/12/14 09:58:24;;;;;;;18.80;10.60;;;;;;;-1.03;63.54;98650.50;5031164;28;20033;-62
2022/12/14 10:00:52;;;;;;;21.00;11.45;;;;;;;-1.07;63.29;98654.22;5023452;28;20044;-60
2022/12/14 10:03:30;;;;;;;21.25;12.00;;;;;;;-1.05;63.59;98660.25;5031079;28;20357;-63
2022/12/14 10:06:33;;;;;;;21.20;11.15;;;;;;;-0.93;63.28;98664.00;5031834;28;20106;-57
2022/12/14 10:09:04;;;;;;;17.65;9.85;;;;;;;-0.98;63.60;98663.41;5030504;28;20025;-58
2022/12/14 10:11:54;;;;;;;20.70;11.05;;;;;;;-0.93;63.85;98666.63;5032210;28;20076;-59
2022/12/14 10:14:51;;;;;;;20.35;10.55;;;;;;;-0.83;63.45;98666.19;5031900;28;20463;-55
2022/12/14 10:17:22;;;;;;;18.20;9.65;;;;;;;-0.82;63.22;98679.22;5012230;28;20065;-58
2022/12/14 10:20:22;;;;;;;19.15;10.38;;;;;;;-0.83;63.31;98661.75;5031802;28;20052;-57
2022/12/14 10:22:53;;;;;;;23.00;10.73;;;;;;;-0.65;62.95;98693.25;5030745;28;20084;-59
2022/12/14 10:25:23;;;;;;;21.35;10.32;;;;;;;-0.59;62.52;98695.56;5031439;28;20030;-55
2022/12/14 10:27:57;;;;;;;20.10;10.98;;;;;;;-0.52;62.95;98706.63;5032122;28;20026;-57
2022/12/14 10:30:23;;;;;;;17.58;10.27;;;;;;;-0.52;62.55;98707.44;5031331;28;20036;-56
2022/12/14 10:32:53;;;;;;;15.52;8.75;;;;;;;-0.47;62.81;98720.34;5031050;28;20041;-57
2022/12/14 10:35:29;;;;;;;19.23;9.75;;;;;;;-0.33;62.65;98736.25;5031825;28;20120;-61
2022/12/14 10:38:14;;;;;;;18.88;9.52;;;;;;;-0.24;62.64;98734.06;5032579;28;20026;-57
2022/12/14 10:40:48;;;;;;;21.00;9.02;;;;;;;-0.19;62.51;98748.69;5031073;28;20026;-62
2022/12/14 10:43:16;;;;;;;18.33;9.25;;;;;;;-0.14;62.48;98740.50;5031568;28;20041;-59
2022/12/14 10:45:59;;;;;;;17.38;7.70;;;;;;;-0.12;62.83;98751.84;5031541;28;20364;-60
2022/12/14 10:48:52;;;;;;;13.93;8.32;;;;;;;-0.04;62.80;98751.41;5032489;28;20076;-57
2022/12/14 10:51:26;;;;;;;15.43;9.15;;;;;;;-0.07;62.25;98764.72;5011795;28;20045;-54
2022/12/14 10:53:57;;;;;;;16.23;8.82;;;;;;;-0.11;61.99;98757.94;5012633;28;20059;-61
2022/12/14 10:56:27;;;;;;;18.02;9.73;;;;;;;-0.15;62.48;98766.00;5012861;28;20049;-57
2022/12/14 10:59:17;;;;;;;16.30;7.88;;;;;;;-0.12;63.08;98775.50;5032407;28;20030;-58
2022/12/14 11:01:45;;;;;;;13.60;7.88;;;;;;;-0.20;63.19;98791.69;5030633;28;20026;-60
2022/12/14 11:04:43;;;;;;;17.30;8.18;;;;;;;-0.11;63.27;98792.13;5029687;28;20099;-61
2022/12/14 11:07:12;;;;;;;16.58;8.60;;;;;;;-0.17;63.53;98802.06;5031262;28;20092;-62
2022/12/14 11:09:38;;;;;;;13.70;7.20;;;;;;;-0.22;63.50;98795.34;5029983;28;20421;-62
2022/12/14 11:12:11;;;;;;;13.50;7.65;;;;;;;-0.13;63.24;98810.63;5033055;28;20040;-57
2022/12/14 11:14:37;;;;;;;11.77;6.55;;;;;;;-0.22;63.28;98811.97;5034438;28;20029;-54
2022/12/14 11:17:02;;;;;;;10.45;6.40;;;;;;;-0.20;63.01;98812.75;5033501;28;20411;-56
2022/12/14 11:19:28;;;;;;;12.38;6.63;;;;;;;-0.25;63.67;98833.16;5034127;28;20033;-57
2022/12/14 11:22:13;;;;;;;11.57;5.95;;;;;;;-0.07;63.78;98839.25;5034105;28;20140;-55
2022/12/14 11:24:44;;;;;;;9.93;5.37;;;;;;;-0.28;64.23;98849.09;5034556;28;20471;-57
2022/12/14 11:27:11;;;;;;;10.43;5.72;;;;;;;-0.41;63.54;98859.41;5034490;28;20117;-56
2022/12/14 11:29:39;;;;;;;12.82;4.97;;;;;;;-0.45;64.41;98865.75;5034415;28;20441;-52
2022/12/14 11:32:05;;;;;;;6.57;3.90;;;;;;;-0.47;64.21;98867.63;5022461;28;20037;-53
2022/12/14 11:34:37;;;;;;;8.95;3.67;;;;;;;-0.47;63.75;98876.38;5014732;28;20497;-53
2022/12/14 11:37:28;;;;;;;6.30;3.47;;;;;;;-0.39;63.75;98877.75;5014702;28;20038;-53
2022/12/14 11:40:04;;;;;;;4.07;2.65;;;;;;;-0.33;63.04;98890.59;5015184;28;20072;-52
2022/12/14 11:42:30;;;;;;;4.60;3.03;;;;;;;-0.53;63.12;98905.59;5017186;28;20075;-60
2022/12/14 11:45:24;;;;;;;4.47;2.80;;;;;;;-0.62;64.32;98911.31;5031090;28;20033;-59
2022/12/14 11:48:14;;;;;;;4.85;2.42;;;;;;;-0.73;64.10;98924.97;5033259;28;20476;-60
2022/12/14 11:50:41;;;;;;;13.60;3.45;;;;;;;-0.83;64.07;98935.09;5033719;28;20049;-58